Time;durP1;ratioP1;P1;durP2;ratioP2;P2;SDS_P1;SDS_P2;PMS_P1;PMS_P2;Temp;Humidity;BMP_temperature;BMP_pressure;BME280_temperature;BME280_humidity;BME280_pressure;Samples;Min_cycle;Max_cycle;Signal;HPM_P1;HPM_P2
2021/01/14 06:51:57;;;;;;;46.25;17.17;;;;;;;;;;5089313;27;20366;-72
2021/01/14 06:54:24;;;;;;;39.08;15.15;;;;;;;;;;5089777;28;20054;-73
2021/01/14 06:57:01;;;;;;;36.70;13.60;;;;;;;;;;5088759;28;20046;-74
2021/01/14 06:59:27;;;;;;;34.15;14.23;;;;;;;;;;5084203;28;20111;-73
2021/01/14 07:02:02;;;;;;;34.25;13.70;;;;;;;;;;5059655;28;20069;-72
2021/01/14 07:04:32;;;;;;;36.70;14.00;;;;;;;;;;5061707;28;20009;-73
2021/01/14 07:07:07;;;;;;;33.35;13.68;;;;;;;;;;5043041;28;20029;-71
2021/01/14 07:09:41;;;;;;;29.73;12.70;;;;;;;;;;5055853;28;20473;-70
2021/01/14 07:12:09;;;;;;;30.58;12.15;;;;;;;;;;5065635;28;20503;-72
2021/01/14 07:14:41;;;;;;;27.55;11.98;;;;;;;;;;5061815;28;20469;-72
2021/01/14 07:17:07;;;;;;;35.28;14.30;;;;;;;;;;5065025;28;20021;-72
2021/01/14 07:19:32;;;;;;;29.10;12.52;;;;;;;;;;5057093;28;20421;-72
2021/01/14 07:21:58;;;;;;;31.10;13.32;;;;;;;;;;5059840;28;20029;-71
2021/01/14 07:24:25;;;;;;;27.92;12.27;;;;;;;;;;5057930;28;20032;-69
2021/01/14 07:26:51;;;;;;;28.38;13.57;;;;;;;;;;5071274;28;20078;-71
2021/01/14 07:29:17;;;;;;;35.15;13.55;;;;;;;;;;5076469;28;20020;-69
2021/01/14 07:31:48;;;;;;;27.98;12.52;;;;;;;;;;5075178;28;20025;-70
2021/01/14 07:34:23;;;;;;;27.88;12.63;;;;;;;;;;5053288;28;20572;-71
2021/01/14 07:36:49;;;;;;;27.17;13.23;;;;;;;;;;5062698;28;20025;-71
2021/01/14 07:39:15;;;;;;;30.60;13.55;;;;;;;;;;5074506;28;20098;-72
2021/01/14 07:41:50;;;;;;;29.10;12.70;;;;;;;;;;5070083;28;20060;-75
2021/01/14 07:44:15;;;;;;;32.97;14.05;;;;;;;;;;5057052;28;20036;-71
2021/01/14 07:46:41;;;;;;;30.52;14.30;;;;;;;;;;5059183;28;20895;-70
2021/01/14 07:49:25;;;;;;;34.63;14.55;;;;;;;;;;5062734;28;20032;-70
2021/01/14 07:51:51;;;;;;;36.28;14.95;;;;;;;;;;5057184;28;20131;-72
2021/01/14 07:54:17;;;;;;;35.53;16.38;;;;;;;;;;5061041;28;20025;-73
2021/01/14 07:56:52;;;;;;;36.60;16.75;;;;;;;;;;5051284;28;20027;-75
2021/01/14 07:59:27;;;;;;;42.58;18.92;;;;;;;;;;5065793;28;20027;-74
2021/01/14 08:02:02;;;;;;;40.83;17.67;;;;;;;;;;5059516;28;20091;-73
2021/01/14 08:04:27;;;;;;;41.10;17.90;;;;;;;;;;5049338;28;20021;-73
2021/01/14 08:06:53;;;;;;;38.75;16.67;;;;;;;;;;5054754;28;20098;-73
2021/01/14 08:09:18;;;;;;;42.83;19.33;;;;;;;;;;5034896;28;20024;-73
2021/01/14 08:11:45;;;;;;;47.75;19.20;;;;;;;;;;5048696;28;20025;-73
2021/01/14 08:14:12;;;;;;;40.53;17.80;;;;;;;;;;5055517;28;20104;-74
2021/01/14 08:16:41;;;;;;;37.90;17.02;;;;;;;;;;5046132;28;20012;-71
2021/01/14 08:19:09;;;;;;;43.10;18.70;;;;;;;;;;5042021;28;20029;-70
2021/01/14 08:21:35;;;;;;;36.17;17.42;;;;;;;;;;5042760;28;20021;-71
2021/01/14 08:24:00;;;;;;;45.75;18.35;;;;;;;;;;5057210;28;20078;-71
2021/01/14 08:26:26;;;;;;;38.20;18.42;;;;;;;;;;5041514;28;20024;-74
2021/01/14 08:29:01;;;;;;;41.92;18.88;;;;;;;;;;5043890;28;20078;-72
2021/01/14 08:31:36;;;;;;;38.85;17.38;;;;;;;;;;5054459;28;20056;-74
2021/01/14 08:34:02;;;;;;;36.92;17.13;;;;;;;;;;5045418;28;20536;-73
2021/01/14 08:36:28;;;;;;;42.08;18.08;;;;;;;;;;5048106;28;20032;-75
2021/01/14 08:38:54;;;;;;;44.38;18.25;;;;;;;;;;5057861;28;20025;-77
2021/01/14 08:41:27;;;;;;;33.00;16.20;;;;;;;;;;5054553;28;20043;-76
2021/01/14 08:44:00;;;;;;;33.28;15.68;;;;;;;;;;5047978;28;20021;-74
2021/01/14 08:46:35;;;;;;;29.23;14.25;;;;;;;;;;5050501;28;20533;-75
2021/01/14 08:49:10;;;;;;;31.42;15.40;;;;;;;;;;5041518;28;20656;-77
2021/01/14 08:51:37;;;;;;;26.98;13.43;;;;;;;;;;5046712;28;20180;-74
2021/01/14 08:54:03;;;;;;;26.05;13.90;;;;;;;;;;5029436;28;20053;-74
2021/01/14 08:56:29;;;;;;;26.08;13.23;;;;;;;;;;5059511;28;20101;-75
2021/01/14 08:58:58;;;;;;;22.70;11.80;;;;;;;;;;5043288;28;20186;-75
2021/01/14 09:01:23;;;;;;;;;;;;;;;;;;5045857;28;20382;-75
2021/01/14 09:03:50;;;;;;;21.08;11.63;;;;;;;;;;5042608;28;19915;-71
2021/01/14 09:06:16;;;;;;;21.38;11.80;;;;;;;;;;5046377;28;20143;-72
2021/01/14 09:08:41;;;;;;;22.38;11.80;;;;;;;;;;5026562;28;20012;-74
2021/01/14 09:11:07;;;;;;;23.05;11.93;;;;;;;;;;5034890;28;20331;-72
2021/01/14 09:13:33;;;;;;;23.65;11.77;;;;;;;;;;5050469;28;20021;-73
2021/01/14 09:16:08;;;;;;;21.27;11.18;;;;;;;;;;5048188;28;20358;-71
2021/01/14 09:18:35;;;;;;;16.35;8.77;;;;;;;;;;5049089;28;20029;-73
2021/01/14 09:21:01;;;;;;;21.00;9.93;;;;;;;;;;5039982;28;20029;-75
2021/01/14 09:23:32;;;;;;;17.38;9.63;;;;;;;;;;5031832;28;20123;-75
2021/01/14 09:25:58;;;;;;;13.95;8.75;;;;;;;;;;5032648;28;20461;-75
2021/01/14 09:28:24;;;;;;;12.90;8.57;;;;;;;;;;5032905;28;20096;-72
2021/01/14 09:30:54;;;;;;;13.18;8.18;;;;;;;;;;5044074;28;20119;-74
2021/01/14 09:33:22;;;;;;;13.70;7.93;;;;;;;;;;5045650;28;20025;-76
2021/01/14 09:35:57;;;;;;;9.63;6.65;;;;;;;;;;5065262;28;20054;-76
2021/01/14 09:38:22;;;;;;;11.13;7.43;;;;;;;;;;5043894;28;20375;-75
2021/01/14 09:40:55;;;;;;;12.45;6.90;;;;;;;;;;5051245;28;20070;-75
2021/01/14 09:43:24;;;;;;;10.95;6.60;;;;;;;;;;5049150;28;20409;-74
2021/01/14 09:45:49;;;;;;;11.25;6.13;;;;;;;;;;5032670;28;20025;-75
2021/01/14 09:48:18;;;;;;;9.98;6.10;;;;;;;;;;5049855;28;20021;-71
2021/01/14 09:50:43;;;;;;;9.25;5.40;;;;;;;;;;5038317;28;20060;-72
2021/01/14 09:53:09;;;;;;;9.73;4.82;;;;;;;;;;5044697;28;20037;-65
2021/01/14 09:55:35;;;;;;;7.65;5.53;;;;;;;;;;5045922;28;20654;-73
2021/01/14 09:58:02;;;;;;;11.63;4.80;;;;;;;;;;5047730;28;20078;-72
2021/01/14 10:00:29;;;;;;;5.50;3.90;;;;;;;;;;5044930;28;20013;-75
2021/01/14 10:03:01;;;;;;;5.93;3.80;;;;;;;;;;5033063;28;20370;-76
2021/01/14 10:05:28;;;;;;;6.10;4.88;;;;;;;;;;5056263;28;20077;-72
2021/01/14 10:07:59;;;;;;;9.23;4.50;;;;;;;;;;5042624;28;20024;-71
2021/01/14 10:10:27;;;;;;;5.60;3.78;;;;;;;;;;5043312;28;20395;-72
2021/01/14 10:12:53;;;;;;;6.95;3.90;;;;;;;;;;5037297;28;20067;-74
2021/01/14 10:15:19;;;;;;;5.72;3.63;;;;;;;;;;5049735;28;20547;-73
2021/01/14 10:17:45;;;;;;;5.20;3.42;;;;;;;;;;5041548;28;20027;-71
2021/01/14 10:20:12;;;;;;;6.15;3.60;;;;;;;;;;5061572;28;20020;-72
2021/01/14 10:22:47;;;;;;;6.43;3.83;;;;;;;;;;5039882;28;20417;-74
2021/01/14 10:25:12;;;;;;;5.40;4.28;;;;;;;;;;5045495;28;20358;-73
2021/01/14 10:27:38;;;;;;;6.50;3.45;;;;;;;;;;5045223;28;20031;-74
2021/01/14 10:30:13;;;;;;;4.85;3.42;;;;;;;;;;5048855;28;20034;-72
2021/01/14 10:32:38;;;;;;;5.00;3.38;;;;;;;;;;5044586;28;20036;-72
2021/01/14 10:35:04;;;;;;;6.03;3.17;;;;;;;;;;5052558;28;20020;-73
2021/01/14 10:37:30;;;;;;;6.20;3.33;;;;;;;;;;5053667;28;20020;-73
2021/01/14 10:39:57;;;;;;;6.63;3.42;;;;;;;;;;5035738;28;20024;-71
2021/01/14 10:42:32;;;;;;;7.70;3.17;;;;;;;;;;5048727;28;20036;-72
2021/01/14 10:45:00;;;;;;;6.50;2.75;;;;;;;;;;5051163;28;20052;-73
2021/01/14 10:47:25;;;;;;;4.72;2.80;;;;;;;;;;5029936;28;20032;-71
2021/01/14 10:49:51;;;;;;;5.78;2.40;;;;;;;;;;5053395;28;20048;-69
2021/01/14 10:52:16;;;;;;;6.00;2.50;;;;;;;;;;5038654;28;20040;-70
2021/01/14 10:54:42;;;;;;;5.10;2.85;;;;;;;;;;5053665;28;20017;-71
2021/01/14 10:57:07;;;;;;;7.20;2.05;;;;;;;;;;5063457;28;20066;-71
2021/01/14 10:59:33;;;;;;;4.07;1.92;;;;;;;;;;5046054;28;20045;-72
2021/01/14 11:02:09;;;;;;;3.40;1.70;;;;;;;;;;5036634;28;20109;-70
2021/01/14 11:04:35;;;;;;;1.98;1.73;;;;;;;;;;5047376;28;20100;-70
2021/01/14 11:07:10;;;;;;;3.38;1.85;;;;;;;;;;5050513;28;20052;-71
2021/01/14 11:09:48;;;;;;;4.85;1.63;;;;;;;;;;5047763;28;20084;-70
2021/01/14 11:12:13;;;;;;;4.13;2.00;;;;;;;;;;5037778;28;20431;-71
2021/01/14 11:14:39;;;;;;;4.20;1.90;;;;;;;;;;5042066;28;20014;-71
2021/01/14 11:17:04;;;;;;;4.03;2.70;;;;;;;;;;5038808;28;20390;-70
2021/01/14 11:19:30;;;;;;;5.20;2.00;;;;;;;;;;5040070;28;20025;-71
2021/01/14 11:21:55;;;;;;;7.30;2.45;;;;;;;;;;5040325;28;20111;-70
2021/01/14 11:24:21;;;;;;;4.20;2.25;;;;;;;;;;5035532;28;20462;-71
2021/01/14 11:26:46;;;;;;;2.45;2.20;;;;;;;;;;5031512;28;20096;-70
2021/01/14 11:29:11;;;;;;;4.47;2.55;;;;;;;;;;5031346;28;20536;-70
2021/01/14 11:31:37;;;;;;;3.63;2.40;;;;;;;;;;5031070;28;20417;-70
2021/01/14 11:34:02;;;;;;;3.63;2.63;;;;;;;;;;5031626;28;20020;-70
2021/01/14 11:36:28;;;;;;;4.40;2.33;;;;;;;;;;5031552;28;20060;-71
2021/01/14 11:38:53;;;;;;;5.43;2.92;;;;;;;;;;5037520;28;20053;-70
2021/01/14 11:41:19;;;;;;;3.75;2.25;;;;;;;;;;5032158;28;20029;-71
2021/01/14 11:43:45;;;;;;;2.35;2.00;;;;;;;;;;5045712;28;20017;-70
2021/01/14 11:46:10;;;;;;;5.20;2.45;;;;;;;;;;5042094;28;20021;-70
2021/01/14 11:48:35;;;;;;;3.97;2.28;;;;;;;;;;5040656;28;20028;-71
2021/01/14 11:51:01;;;;;;;6.50;2.80;;;;;;;;;;5042742;28;20045;-72
2021/01/14 11:53:26;;;;;;;3.65;2.38;;;;;;;;;;5041802;28;20468;-74
2021/01/14 11:55:52;;;;;;;3.20;2.35;;;;;;;;;;5058820;28;20028;-71
2021/01/14 11:58:18;;;;;;;5.57;2.30;;;;;;;;;;5059140;28;20112;-73
2021/01/14 12:00:43;;;;;;;5.78;3.03;;;;;;;;;;5065692;28;20366;-72
2021/01/14 12:03:09;;;;;;;5.80;2.65;;;;;;;;;;5055620;28;20017;-69
2021/01/14 12:05:35;;;;;;;8.35;2.42;;;;;;;;;;5047273;28;20024;-71
2021/01/14 12:08:00;;;;;;;5.10;2.60;;;;;;;;;;5067095;28;20021;-71
2021/01/14 12:10:26;;;;;;;5.10;2.42;;;;;;;;;;5058103;28;20024;-71
2021/01/14 12:12:51;;;;;;;5.40;2.60;;;;;;;;;;5068341;28;20027;-69
2021/01/14 12:15:17;;;;;;;7.25;2.40;;;;;;;;;;5057622;28;20024;-70
2021/01/14 12:17:43;;;;;;;6.68;2.58;;;;;;;;;;5069400;28;20013;-70
2021/01/14 12:20:08;;;;;;;5.13;2.40;;;;;;;;;;5054753;28;20079;-68
2021/01/14 12:22:38;;;;;;;4.88;2.30;;;;;;;;;;5051188;28;20018;-70
2021/01/14 12:25:05;;;;;;;5.07;2.28;;;;;;;;;;5039782;28;20029;-71
2021/01/14 12:27:31;;;;;;;3.00;1.90;;;;;;;;;;5066610;28;20021;-72
2021/01/14 12:29:56;;;;;;;4.57;2.05;;;;;;;;;;5059448;28;20032;-73
2021/01/14 12:32:21;;;;;;;2.88;2.47;;;;;;;;;;5056966;28;20025;-71
2021/01/14 12:34:47;;;;;;;5.80;2.17;;;;;;;;;;5062325;28;20384;-72
2021/01/14 12:37:12;;;;;;;6.97;2.58;;;;;;;;;;5049304;28;20465;-73
2021/01/14 12:39:38;;;;;;;4.38;2.65;;;;;;;;;;5037634;28;20526;-69
2021/01/14 12:42:06;;;;;;;4.90;2.97;;;;;;;;;;5050017;28;20457;-74
2021/01/14 12:44:32;;;;;;;2.67;2.47;;;;;;;;;;5051045;28;20024;-73
2021/01/14 12:46:57;;;;;;;5.63;2.50;;;;;;;;;;5064870;28;20012;-74
2021/01/14 12:49:23;;;;;;;3.38;2.85;;;;;;;;;;5045627;28;20033;-71
2021/01/14 12:51:48;;;;;;;5.78;2.80;;;;;;;;;;5050961;28;20041;-71
2021/01/14 12:54:13;;;;;;;5.18;2.70;;;;;;;;;;5041160;28;20056;-72
2021/01/14 12:56:41;;;;;;;6.75;2.83;;;;;;;;;;5032478;28;20020;-70
2021/01/14 12:59:07;;;;;;;4.63;2.95;;;;;;;;;;5044961;28;20385;-70
2021/01/14 13:01:34;;;;;;;5.32;3.03;;;;;;;;;;5057495;28;20040;-73
2021/01/14 13:04:01;;;;;;;4.80;2.90;;;;;;;;;;5057572;28;20040;-71
2021/01/14 13:06:27;;;;;;;4.57;2.85;;;;;;;;;;5057941;28;20067;-70
2021/01/14 13:08:53;;;;;;;4.05;2.42;;;;;;;;;;5066634;28;20103;-71
2021/01/14 13:11:18;;;;;;;7.13;2.97;;;;;;;;;;5055727;28;20428;-73
2021/01/14 13:13:43;;;;;;;6.30;2.80;;;;;;;;;;5069836;28;20083;-69
2021/01/14 13:16:09;;;;;;;4.38;2.40;;;;;;;;;;5050639;28;20022;-69
2021/01/14 13:18:34;;;;;;;5.18;3.00;;;;;;;;;;5037679;28;20029;-68
2021/01/14 13:21:00;;;;;;;5.00;3.47;;;;;;;;;;5038619;28;20448;-68
2021/01/14 13:23:25;;;;;;;5.25;3.10;;;;;;;;;;5045497;28;20449;-68
2021/01/14 13:25:51;;;;;;;8.20;3.30;;;;;;;;;;5058225;28;20073;-63
2021/01/14 13:28:16;;;;;;;5.22;3.05;;;;;;;;;;5058450;28;20024;-65
2021/01/14 13:30:42;;;;;;;5.53;3.28;;;;;;;;;;5037357;28;20036;-65
2021/01/14 13:33:07;;;;;;;6.10;3.10;;;;;;;;;;5063210;28;20054;-64
2021/01/14 13:35:33;;;;;;;9.80;3.58;;;;;;;;;;5054672;28;20020;-64
2021/01/14 13:37:58;;;;;;;5.38;2.97;;;;;;;;;;5064888;28;20017;-64
2021/01/14 13:40:23;;;;;;;5.70;3.38;;;;;;;;;;5061647;28;20024;-67
2021/01/14 13:42:49;;;;;;;3.20;2.53;;;;;;;;;;5060978;28;20060;-67
2021/01/14 13:45:14;;;;;;;3.70;3.08;;;;;;;;;;5045277;28;20028;-64
2021/01/14 13:47:40;;;;;;;6.05;2.88;;;;;;;;;;5060678;28;20020;-67
2021/01/14 13:50:06;;;;;;;7.60;2.83;;;;;;;;;;5061492;28;20048;-64
2021/01/14 13:52:31;;;;;;;9.05;3.75;;;;;;;;;;5062701;28;20012;-63
2021/01/14 13:54:57;;;;;;;4.90;3.10;;;;;;;;;;5052733;28;20024;-62
2021/01/14 13:57:25;;;;;;;9.40;3.50;;;;;;;;;;5042347;28;20030;-63
2021/01/14 13:59:53;;;;;;;4.00;3.13;;;;;;;;;;5036642;28;20082;-63
2021/01/14 14:02:21;;;;;;;6.88;3.17;;;;;;;;;;5042377;28;20628;-65
2021/01/14 14:04:49;;;;;;;5.13;3.13;;;;;;;;;;5039800;28;20033;-65
2021/01/14 14:07:16;;;;;;;6.53;3.38;;;;;;;;;;5049173;28;20037;-65
2021/01/14 14:09:45;;;;;;;6.28;3.90;;;;;;;;;;5048505;28;20151;-65
2021/01/14 14:12:18;;;;;;;4.82;3.28;;;;;;;;;;5044508;28;20018;-64
2021/01/14 14:14:48;;;;;;;6.30;3.35;;;;;;;;;;5037608;28;20489;-66
2021/01/14 14:17:16;;;;;;;7.35;3.60;;;;;;;;;;5049092;28;20080;-65
2021/01/14 14:19:42;;;;;;;8.13;4.22;;;;;;;;;;5044929;28;20048;-64
2021/01/14 14:22:07;;;;;;;5.22;4.03;;;;;;;;;;5051781;28;20056;-63
2021/01/14 14:24:33;;;;;;;7.18;3.70;;;;;;;;;;5036883;28;20083;-62
2021/01/14 14:26:58;;;;;;;6.00;3.85;;;;;;;;;;5044332;28;20026;-63
2021/01/14 14:29:24;;;;;;;4.90;3.25;;;;;;;;;;5061373;28;20025;-62
2021/01/14 14:31:49;;;;;;;20.10;7.88;;;;;;;;;;5039194;28;20083;-62
2021/01/14 14:34:15;;;;;;;13.18;4.70;;;;;;;;;;5043953;28;20032;-63
2021/01/14 14:36:41;;;;;;;6.95;4.18;;;;;;;;;;5036358;28;20036;-62
2021/01/14 14:39:06;;;;;;;6.60;3.95;;;;;;;;;;5035266;28;20087;-62
2021/01/14 14:41:32;;;;;;;9.35;4.38;;;;;;;;;;5042972;28;20029;-61
2021/01/14 14:43:58;;;;;;;8.52;4.60;;;;;;;;;;5047437;28;20021;-62
2021/01/14 14:46:24;;;;;;;14.75;6.70;;;;;;;;;;5047622;28;20023;-63
2021/01/14 14:48:51;;;;;;;14.57;5.18;;;;;;;;;;5051834;28;20025;-62
2021/01/14 14:51:17;;;;;;;15.45;6.50;;;;;;;;;;5065190;28;20437;-63
2021/01/14 14:53:44;;;;;;;29.40;11.88;;;;;;;;;;5045313;28;20024;-62
2021/01/14 14:56:10;;;;;;;134.98;48.85;;;;;;;;;;5043961;28;20026;-62
2021/01/14 14:58:36;;;;;;;108.68;39.53;;;;;;;;;;5024899;28;20043;-63
2021/01/14 15:01:02;;;;;;;297.75;89.25;;;;;;;;;;5045923;28;20477;-62
2021/01/14 15:03:28;;;;;;;224.50;71.20;;;;;;;;;;5053650;28;20092;-63
2021/01/14 15:05:55;;;;;;;63.85;23.08;;;;;;;;;;5050346;28;20104;-62
2021/01/14 15:08:21;;;;;;;33.17;13.20;;;;;;;;;;5040370;28;20049;-62
2021/01/14 15:10:46;;;;;;;170.18;53.10;;;;;;;;;;5038913;28;20496;-63
2021/01/14 15:13:12;;;;;;;62.50;20.80;;;;;;;;;;5045825;28;20370;-63
2021/01/14 15:15:38;;;;;;;226.80;61.72;;;;;;;;;;5055200;28;20023;-64
2021/01/14 15:18:03;;;;;;;71.72;25.27;;;;;;;;;;5046605;28;20427;-62
2021/01/14 15:20:29;;;;;;;20.75;8.55;;;;;;;;;;5056134;28;20024;-63
2021/01/14 15:22:55;;;;;;;52.72;16.02;;;;;;;;;;5043518;28;20037;-63
2021/01/14 15:25:20;;;;;;;40.85;14.00;;;;;;;;;;5053513;28;20071;-63
2021/01/14 15:27:46;;;;;;;49.22;17.63;;;;;;;;;;5057056;28;20009;-64
2021/01/14 15:30:12;;;;;;;30.63;12.25;;;;;;;;;;5062919;28;20035;-64
2021/01/14 15:32:37;;;;;;;9.43;5.30;;;;;;;;;;5047141;28;20056;-63
2021/01/14 15:35:04;;;;;;;8.38;4.28;;;;;;;;;;5041313;28;20037;-63
2021/01/14 15:37:29;;;;;;;11.02;5.60;;;;;;;;;;5056700;28;20021;-64
2021/01/14 15:39:55;;;;;;;7.82;5.10;;;;;;;;;;5066914;28;20089;-64
2021/01/14 15:42:21;;;;;;;11.00;4.68;;;;;;;;;;5038996;28;20021;-64
2021/01/14 15:44:46;;;;;;;10.02;4.80;;;;;;;;;;5067120;28;20024;-65
2021/01/14 15:47:12;;;;;;;20.48;6.28;;;;;;;;;;5056675;28;20028;-64
